createdAt,value
2023-02-27T00:00:16.949Z,45.06
2023-02-27T00:01:07.061Z,46.94
2023-02-27T00:01:57.094Z,46.71
2023-02-27T00:02:47.203Z,45.78
2023-02-27T00:03:37.251Z,43.97
2023-02-27T00:04:27.271Z,42.52
2023-02-27T00:05:17.290Z,42.28
2023-02-27T00:06:07.345Z,41.62
2023-02-27T00:06:57.367Z,45.15
2023-02-27T00:07:47.464Z,44.10
2023-02-27T00:08:37.524Z,44.38
2023-02-27T00:09:27.527Z,40.50
2023-02-27T00:10:17.556Z,42.96
2023-02-27T00:11:07.675Z,41.50
2023-02-27T00:11:57.681Z,42.92
2023-02-27T00:12:47.725Z,45.22
2023-02-27T00:13:37.753Z,39.50
2023-02-27T00:14:27.845Z,43.21
2023-02-27T00:15:17.875Z,40.26
2023-02-27T00:16:08.014Z,38.73
2023-02-27T00:16:57.983Z,40.65
2023-02-27T00:17:48.052Z,38.82
2023-02-27T00:18:38.082Z,41.74
2023-02-27T00:19:28.161Z,37.00
2023-02-27T00:20:18.187Z,38.24
2023-02-27T00:21:08.297Z,40.71
2023-02-27T00:21:58.329Z,43.10
2023-02-27T00:22:48.409Z,38.43
2023-02-27T00:23:38.429Z,44.19
2023-02-27T00:24:28.684Z,43.40
2023-02-27T00:25:18.712Z,41.03
2023-02-27T00:26:08.804Z,37.61
2023-02-27T00:26:58.870Z,43.36
2023-02-27T00:27:48.917Z,37.05
2023-02-27T00:28:38.951Z,40.01
2023-02-27T00:29:29.036Z,40.05
2023-02-27T00:30:19.046Z,40.35
2023-02-27T00:31:09.260Z,41.42
2023-02-27T00:31:59.292Z,38.46
2023-02-27T00:32:49.268Z,38.01
2023-02-27T00:33:39.510Z,38.55
2023-02-27T00:34:29.586Z,38.74
2023-02-27T00:35:19.610Z,39.42
2023-02-27T00:36:09.676Z,36.62
2023-02-27T00:36:59.700Z,39.49
2023-02-27T00:37:49.779Z,41.18
2023-02-27T00:38:39.802Z,40.21
2023-02-27T00:39:29.883Z,39.25
2023-02-27T00:40:19.915Z,39.42
2023-02-27T00:41:10.020Z,40.51
2023-02-27T00:42:00.041Z,37.68
2023-02-27T00:42:50.359Z,39.31
2023-02-27T00:43:40.362Z,45.27
2023-02-27T00:44:30.447Z,43.66
2023-02-27T00:45:20.469Z,43.36
2023-02-27T00:46:10.632Z,45.08
2023-02-27T00:47:00.608Z,41.03
2023-02-27T00:47:50.674Z,46.55
2023-02-27T00:48:40.691Z,41.13
2023-02-27T00:49:30.738Z,39.44
2023-02-27T00:50:20.768Z,44.29
2023-02-27T00:51:10.892Z,43.42
2023-02-27T00:52:00.872Z,41.05
2023-02-27T00:52:50.951Z,41.39
2023-02-27T00:53:40.980Z,42.08
2023-02-27T00:54:31.056Z,39.50
2023-02-27T00:55:21.080Z,40.52
2023-02-27T00:56:11.186Z,43.03
2023-02-27T00:57:01.206Z,39.01
2023-02-27T00:57:51.354Z,42.02
2023-02-27T00:58:41.620Z,39.50
2023-02-27T00:59:31.672Z,37.27
2023-02-27T01:00:21.693Z,42.58
2023-02-27T01:01:12.123Z,37.64
2023-02-27T01:02:02.066Z,37.66
2023-02-27T01:02:52.226Z,40.64
2023-02-27T01:03:42.458Z,42.07
2023-02-27T01:04:32.560Z,41.01
2023-02-27T01:05:22.576Z,44.57
2023-02-27T01:06:12.673Z,40.49
2023-02-27T01:07:02.705Z,41.91
2023-02-27T01:07:52.785Z,44.76
2023-02-27T01:08:42.818Z,43.33
2023-02-27T01:09:32.891Z,43.85
2023-02-27T01:10:22.968Z,44.80
2023-02-27T01:11:13.070Z,44.91
2023-02-27T01:12:03.088Z,47.86
2023-02-27T01:12:53.436Z,45.69
2023-02-27T01:13:43.450Z,45.09
2023-02-27T01:14:33.551Z,44.64
2023-02-27T01:15:23.558Z,44.85
2023-02-27T01:16:13.702Z,46.74
2023-02-27T01:17:03.666Z,46.93
2023-02-27T01:17:53.716Z,44.39
2023-02-27T01:18:43.744Z,45.99
2023-02-27T01:19:33.778Z,47.63
2023-02-27T01:20:23.803Z,41.17
2023-02-27T01:21:13.892Z,43.35
2023-02-27T01:22:03.922Z,44.93
2023-02-27T01:22:54.067Z,37.01
2023-02-27T01:23:44.012Z,41.32
2023-02-27T01:24:34.083Z,43.96
2023-02-27T01:25:24.113Z,38.74
2023-02-27T01:26:14.221Z,43.63
2023-02-27T01:27:04.252Z,41.53
2023-02-27T01:27:54.290Z,40.87
2023-02-27T01:28:44.358Z,43.19
2023-02-27T01:29:34.368Z,38.27
2023-02-27T01:30:24.456Z,42.92
2023-02-27T01:31:14.579Z,40.73
2023-02-27T01:32:04.623Z,41.26
2023-02-27T01:32:54.579Z,41.20
2023-02-27T01:33:44.607Z,43.13
2023-02-27T01:34:34.688Z,36.22
2023-02-27T01:35:25.011Z,41.24
2023-02-27T01:36:15.103Z,39.86
2023-02-27T01:37:05.150Z,40.36
2023-02-27T01:37:55.460Z,41.94
2023-02-27T01:38:45.531Z,40.54
2023-02-27T01:39:35.601Z,37.79
2023-02-27T01:40:25.891Z,40.27
2023-02-27T01:41:16.026Z,40.31
2023-02-27T01:42:06.016Z,39.97
2023-02-27T01:42:56.364Z,41.44
2023-02-27T01:43:46.380Z,40.36
2023-02-27T01:44:36.459Z,38.88
2023-02-27T01:45:26.491Z,38.87
2023-02-27T01:46:16.608Z,40.61
2023-02-27T01:47:06.615Z,39.10
2023-02-27T01:47:56.690Z,40.75
2023-02-27T01:48:46.764Z,41.10
2023-02-27T01:49:36.840Z,42.64
2023-02-27T01:50:26.900Z,40.74
2023-02-27T01:51:17.018Z,37.37
2023-02-27T01:52:07.149Z,42.58
2023-02-27T01:52:57.235Z,41.75
2023-02-27T01:53:47.296Z,38.70
2023-02-27T01:54:37.602Z,41.53
2023-02-27T01:55:27.652Z,43.47
2023-02-27T01:56:17.747Z,40.64
2023-02-27T01:57:08.048Z,38.91
2023-02-27T01:57:58.117Z,38.71
2023-02-27T01:58:48.156Z,42.03
2023-02-27T01:59:38.221Z,42.89
2023-02-27T02:00:28.255Z,42.36
2023-02-27T02:01:18.503Z,43.75
2023-02-27T02:02:08.472Z,44.97
2023-02-27T02:02:58.470Z,43.51
2023-02-27T02:03:48.501Z,39.32
2023-02-27T02:04:38.555Z,40.28
2023-02-27T02:05:28.589Z,40.78
2023-02-27T02:06:18.645Z,46.71
2023-02-27T02:07:08.688Z,44.91
2023-02-27T02:07:58.751Z,41.90
2023-02-27T02:08:48.789Z,42.18
2023-02-27T02:09:38.828Z,45.03
2023-02-27T02:10:28.858Z,42.54
2023-02-27T02:11:18.950Z,42.26
2023-02-27T02:12:08.992Z,42.77
2023-02-27T02:12:59.336Z,45.58
2023-02-27T02:13:49.366Z,44.59
2023-02-27T02:14:39.450Z,42.03
2023-02-27T02:15:29.477Z,41.36
2023-02-27T02:16:19.611Z,46.11
2023-02-27T02:17:09.638Z,42.05
2023-02-27T02:17:59.701Z,42.91
2023-02-27T02:18:49.731Z,38.29
2023-02-27T02:19:39.778Z,40.94
2023-02-27T02:20:29.820Z,40.71
2023-02-27T02:21:19.871Z,41.87
2023-02-27T02:22:09.902Z,40.76
2023-02-27T02:22:59.984Z,41.72
2023-02-27T02:23:50.037Z,44.60
2023-02-27T02:24:40.119Z,39.94
2023-02-27T02:25:30.156Z,40.62
2023-02-27T02:26:20.251Z,38.63
2023-02-27T02:27:10.278Z,39.55
2023-02-27T02:28:00.314Z,42.69
2023-02-27T02:28:50.559Z,37.12
2023-02-27T02:29:40.647Z,39.56
2023-02-27T02:30:30.788Z,39.06
2023-02-27T02:31:21.115Z,39.97
2023-02-27T02:32:11.162Z,44.82
2023-02-27T02:33:01.121Z,44.68
2023-02-27T02:33:51.132Z,42.67
2023-02-27T02:34:41.217Z,42.64
2023-02-27T02:35:31.248Z,45.24
2023-02-27T02:36:21.346Z,46.00
2023-02-27T02:37:11.392Z,40.45
2023-02-27T02:38:01.469Z,43.06
2023-02-27T02:38:51.541Z,43.23
2023-02-27T02:39:41.623Z,43.62
2023-02-27T02:40:31.781Z,44.91
2023-02-27T02:41:21.876Z,43.55
2023-02-27T02:42:11.906Z,44.22
2023-02-27T02:43:02.243Z,42.56
2023-02-27T02:43:52.298Z,41.24
2023-02-27T02:44:42.354Z,44.13
2023-02-27T02:45:32.378Z,42.79
2023-02-27T02:46:22.546Z,46.71
2023-02-27T02:47:12.496Z,41.43
2023-02-27T02:48:02.583Z,46.15
2023-02-27T02:48:52.683Z,45.43
2023-02-27T02:49:42.730Z,45.97
2023-02-27T02:50:32.794Z,45.15
2023-02-27T02:51:22.887Z,44.10
2023-02-27T02:52:12.901Z,43.10
2023-02-27T02:53:02.986Z,44.47
2023-02-27T02:53:53.039Z,42.71
2023-02-27T02:54:43.122Z,40.37
2023-02-27T02:55:33.322Z,42.06
2023-02-27T02:56:23.416Z,40.15
2023-02-27T02:57:13.450Z,39.52
2023-02-27T02:58:03.530Z,42.49
2023-02-27T02:58:53.551Z,39.84
2023-02-27T02:59:43.633Z,40.91
2023-02-27T03:00:33.660Z,41.56
2023-02-27T03:01:23.763Z,40.09
2023-02-27T03:02:13.789Z,42.44
2023-02-27T03:03:03.865Z,43.38
2023-02-27T03:03:53.938Z,43.15
2023-02-27T03:04:44.332Z,43.77
2023-02-27T03:05:34.229Z,39.50
2023-02-27T03:06:24.337Z,44.01
2023-02-27T03:07:14.378Z,42.39
2023-02-27T03:08:04.426Z,43.42
2023-02-27T03:08:54.457Z,43.63
2023-02-27T03:09:44.537Z,38.32
2023-02-27T03:10:34.586Z,41.53
2023-02-27T03:11:25.031Z,39.68
2023-02-27T03:12:14.705Z,43.89
2023-02-27T03:13:04.789Z,44.29
2023-02-27T03:13:55.077Z,40.62
2023-02-27T03:14:45.113Z,44.26
2023-02-27T03:15:35.191Z,42.94
2023-02-27T03:16:25.202Z,43.88
2023-02-27T03:17:15.233Z,42.25
2023-02-27T03:18:05.315Z,41.73
2023-02-27T03:18:55.348Z,41.28
2023-02-27T03:19:45.426Z,41.36
2023-02-27T03:20:35.480Z,44.63
2023-02-27T03:21:25.984Z,38.38
2023-02-27T03:22:15.608Z,35.47
2023-02-27T03:23:05.685Z,37.90
2023-02-27T03:23:55.702Z,36.94
2023-02-27T03:24:45.782Z,36.94
2023-02-27T03:25:35.806Z,33.63
2023-02-27T03:26:25.907Z,35.23
2023-02-27T03:27:15.941Z,34.10
2023-02-27T03:28:06.025Z,38.39
2023-02-27T03:28:56.044Z,35.73
2023-02-27T03:29:46.343Z,33.39
2023-02-27T03:30:36.422Z,33.81
2023-02-27T03:31:26.899Z,35.10
2023-02-27T03:32:16.579Z,37.26
2023-02-27T03:33:06.547Z,37.28
2023-02-27T03:33:56.613Z,34.50
2023-02-27T03:34:46.683Z,37.70
2023-02-27T03:35:36.746Z,37.77
2023-02-27T03:36:26.860Z,36.37
2023-02-27T03:37:16.856Z,35.37
2023-02-27T03:38:06.936Z,35.80
2023-02-27T03:38:56.964Z,35.35
2023-02-27T03:39:47.212Z,33.07
2023-02-27T03:40:37.281Z,34.51
2023-02-27T03:41:27.766Z,33.33
2023-02-27T03:42:17.389Z,33.85
2023-02-27T03:43:07.470Z,33.84
2023-02-27T03:43:57.499Z,36.69
2023-02-27T03:44:47.571Z,36.98
2023-02-27T03:45:37.646Z,32.46
2023-02-27T03:46:27.838Z,34.82
2023-02-27T03:47:17.747Z,35.50
2023-02-27T03:48:07.825Z,34.80
2023-02-27T03:48:58.084Z,33.36
2023-02-27T03:49:48.183Z,34.39
2023-02-27T03:50:38.167Z,34.60
2023-02-27T03:51:28.697Z,29.97
2023-02-27T03:52:18.294Z,29.62
2023-02-27T03:53:08.610Z,35.34
2023-02-27T03:53:58.634Z,33.58
2023-02-27T03:54:48.721Z,33.90
2023-02-27T03:55:38.775Z,32.02
2023-02-27T03:56:28.828Z,30.75
2023-02-27T03:57:18.852Z,30.57
2023-02-27T03:58:08.930Z,31.76
2023-02-27T03:58:58.970Z,34.94
2023-02-27T03:59:49.014Z,31.45
2023-02-27T04:00:39.052Z,33.25
2023-02-27T04:01:29.584Z,34.06
2023-02-27T04:02:19.476Z,32.61
2023-02-27T04:03:09.667Z,34.17
2023-02-27T04:03:59.590Z,36.31
2023-02-27T04:04:49.935Z,36.14
2023-02-27T04:05:39.967Z,34.13
2023-02-27T04:06:30.069Z,35.33
2023-02-27T04:07:20.094Z,32.94
2023-02-27T04:08:10.154Z,32.80
2023-02-27T04:09:00.164Z,33.00
2023-02-27T04:09:50.250Z,33.56
2023-02-27T04:10:40.283Z,32.04
2023-02-27T04:11:30.391Z,31.14
2023-02-27T04:12:20.428Z,31.62
2023-02-27T04:13:10.501Z,27.84
2023-02-27T04:14:00.538Z,34.71
2023-02-27T04:14:50.620Z,34.37
2023-02-27T04:15:40.660Z,35.00
2023-02-27T04:16:30.759Z,33.37
2023-02-27T04:17:20.788Z,34.20
2023-02-27T04:18:10.876Z,35.08
2023-02-27T04:19:00.897Z,30.14
2023-02-27T04:19:51.043Z,33.63
2023-02-27T04:20:41.275Z,28.84
2023-02-27T04:21:31.383Z,32.56
2023-02-27T04:22:21.423Z,35.37
2023-02-27T04:23:11.752Z,31.86
2023-02-27T04:24:01.798Z,29.42
2023-02-27T04:24:51.818Z,30.85
2023-02-27T04:25:41.858Z,31.70
2023-02-27T04:26:31.944Z,28.78
2023-02-27T04:27:21.960Z,31.68
2023-02-27T04:28:12.063Z,30.81
2023-02-27T04:29:02.084Z,33.59
2023-02-27T04:29:52.138Z,33.30
2023-02-27T04:30:42.204Z,28.91
2023-02-27T04:31:32.393Z,32.83
2023-02-27T04:32:22.393Z,34.06
2023-02-27T04:33:12.329Z,33.12
2023-02-27T04:34:02.386Z,35.30
2023-02-27T04:34:52.438Z,32.92
2023-02-27T04:35:42.471Z,31.67
2023-02-27T04:36:32.625Z,35.83
2023-02-27T04:37:22.654Z,33.66
2023-02-27T04:38:12.706Z,30.92
2023-02-27T04:39:02.745Z,31.11
2023-02-27T04:39:52.841Z,30.74
2023-02-27T04:40:42.847Z,28.51
2023-02-27T04:41:32.994Z,30.05
2023-02-27T04:42:22.982Z,26.90
2023-02-27T04:43:13.070Z,31.89
2023-02-27T04:44:03.100Z,30.17
2023-02-27T04:44:53.177Z,29.77
2023-02-27T04:45:43.512Z,30.32
2023-02-27T04:46:33.526Z,31.02
2023-02-27T04:47:23.552Z,29.14
2023-02-27T04:48:13.670Z,27.85
2023-02-27T04:49:03.661Z,29.94
2023-02-27T04:49:53.709Z,29.61
2023-02-27T04:50:43.748Z,27.45
2023-02-27T04:51:33.815Z,29.52
2023-02-27T04:52:23.924Z,29.69
2023-02-27T04:53:14.018Z,32.40
2023-02-27T04:54:04.043Z,30.92
2023-02-27T04:54:54.131Z,29.39
2023-02-27T04:55:44.185Z,28.17
2023-02-27T04:56:34.217Z,31.19
2023-02-27T04:57:24.244Z,30.63
2023-02-27T04:58:14.322Z,28.93
2023-02-27T04:59:04.410Z,30.44
2023-02-27T04:59:54.448Z,28.14
2023-02-27T05:00:44.479Z,30.54
2023-02-27T05:01:34.627Z,34.27
2023-02-27T05:02:24.733Z,37.64
2023-02-27T05:03:14.661Z,45.63
2023-02-27T05:04:04.690Z,61.21
2023-02-27T05:04:54.776Z,73.46
2023-02-27T05:05:44.841Z,85.58
2023-02-27T05:06:34.941Z,96.42
2023-02-27T05:07:24.970Z,103.47
2023-02-27T05:08:15.313Z,104.28
2023-02-27T05:09:05.348Z,103.54
2023-02-27T05:09:55.438Z,103.03
2023-02-27T05:10:45.466Z,99.32
2023-02-27T05:11:35.556Z,98.34
2023-02-27T05:12:25.560Z,96.53
2023-02-27T05:13:15.631Z,95.07
2023-02-27T05:14:05.667Z,92.98
2023-02-27T05:14:55.762Z,95.52
2023-02-27T05:15:45.866Z,95.77
2023-02-27T05:16:35.908Z,92.45
2023-02-27T05:17:25.914Z,90.28
2023-02-27T05:18:16.046Z,95.21
2023-02-27T05:19:06.021Z,94.48
2023-02-27T05:19:56.076Z,91.21
2023-02-27T05:20:46.116Z,90.84
2023-02-27T05:21:36.253Z,92.76
2023-02-27T05:22:26.196Z,91.55
2023-02-27T05:23:16.276Z,92.63
2023-02-27T05:24:06.313Z,91.49
2023-02-27T05:24:56.389Z,90.50
2023-02-27T05:25:46.434Z,93.70
2023-02-27T05:26:36.519Z,96.91
2023-02-27T05:27:26.572Z,99.80
2023-02-27T05:28:16.622Z,101.38
2023-02-27T05:29:06.664Z,98.86
2023-02-27T05:29:56.753Z,98.63
2023-02-27T05:30:47.032Z,94.05
2023-02-27T05:31:37.178Z,96.10
2023-02-27T05:32:27.261Z,99.20
2023-02-27T05:33:17.218Z,100.05
2023-02-27T05:34:07.260Z,99.88
2023-02-27T05:34:57.301Z,101.41
2023-02-27T05:35:47.392Z,101.82
2023-02-27T05:36:37.415Z,101.74
2023-02-27T05:37:27.495Z,103.49
2023-02-27T05:38:17.603Z,104.72
2023-02-27T05:39:07.636Z,103.57
2023-02-27T05:39:58.058Z,101.55
2023-02-27T05:40:48.015Z,101.75
2023-02-27T05:41:38.075Z,103.52
2023-02-27T05:42:28.139Z,105.56
2023-02-27T05:43:18.150Z,108.89
2023-02-27T05:44:08.187Z,109.95
2023-02-27T05:44:58.231Z,111.13
2023-02-27T05:45:48.285Z,108.36
2023-02-27T05:46:38.375Z,109.13
2023-02-27T05:47:28.447Z,107.48
2023-02-27T05:48:19.722Z,109.49
2023-02-27T05:49:08.507Z,111.55
2023-02-27T05:49:58.572Z,112.24
2023-02-27T05:50:48.585Z,114.37
2023-02-27T05:51:38.703Z,116.76
2023-02-27T05:52:28.690Z,117.45
2023-02-27T05:53:18.821Z,115.21
2023-02-27T05:54:08.862Z,115.20
2023-02-27T05:54:58.896Z,117.38
2023-02-27T05:55:48.943Z,114.21
2023-02-27T05:56:38.995Z,118.08
2023-02-27T05:57:29.030Z,119.76
2023-02-27T05:58:19.137Z,117.13
2023-02-27T05:59:09.155Z,115.60
2023-02-27T05:59:59.199Z,114.86
2023-02-27T06:00:49.232Z,111.97
2023-02-27T06:01:39.300Z,112.75
2023-02-27T06:02:29.375Z,115.37
2023-02-27T06:03:19.449Z,116.38
2023-02-27T06:04:09.422Z,113.22
2023-02-27T06:04:59.467Z,112.44
2023-02-27T06:05:49.502Z,113.61
2023-02-27T06:06:39.646Z,113.05
2023-02-27T06:07:29.683Z,112.98
2023-02-27T06:08:19.721Z,117.58
2023-02-27T06:09:09.757Z,115.60
2023-02-27T06:09:59.816Z,113.28
2023-02-27T06:10:49.879Z,115.50
2023-02-27T06:11:39.943Z,113.85
2023-02-27T06:12:29.976Z,114.52
2023-02-27T06:13:20.104Z,115.91
2023-02-27T06:14:10.119Z,115.68
2023-02-27T06:15:00.170Z,117.19
2023-02-27T06:15:50.180Z,120.92
2023-02-27T06:16:40.367Z,115.05
2023-02-27T06:17:30.324Z,119.88
2023-02-27T06:18:20.378Z,121.66
2023-02-27T06:19:10.419Z,121.50
2023-02-27T06:20:00.454Z,121.03
2023-02-27T06:20:50.484Z,122.66
2023-02-27T06:21:40.546Z,122.14
2023-02-27T06:22:30.576Z,121.50
2023-02-27T06:23:20.664Z,125.75
2023-02-27T06:24:10.699Z,126.40
2023-02-27T06:25:00.740Z,125.47
2023-02-27T06:25:50.777Z,128.88
2023-02-27T06:26:40.880Z,130.14
2023-02-27T06:27:30.922Z,130.77
2023-02-27T06:28:20.960Z,130.67
2023-02-27T06:29:11.003Z,135.71
2023-02-27T06:30:01.154Z,134.49
2023-02-27T06:30:51.084Z,136.01
2023-02-27T06:31:41.184Z,133.87
2023-02-27T06:32:31.217Z,134.60
2023-02-27T06:33:21.306Z,134.87
2023-02-27T06:34:11.346Z,138.23
2023-02-27T06:35:01.383Z,145.63
2023-02-27T06:35:51.440Z,137.96
2023-02-27T06:36:41.523Z,142.36
2023-02-27T06:37:31.553Z,142.62
2023-02-27T06:38:21.638Z,142.91
2023-02-27T06:39:11.679Z,147.71
2023-02-27T06:40:01.720Z,146.59
2023-02-27T06:40:51.753Z,143.88
2023-02-27T06:41:41.822Z,145.42
2023-02-27T06:42:31.867Z,144.63
2023-02-27T06:43:21.896Z,147.01
2023-02-27T06:44:11.933Z,148.49
2023-02-27T06:45:02.011Z,150.86
2023-02-27T06:45:52.140Z,151.38
2023-02-27T06:46:42.290Z,150.03
2023-02-27T06:47:32.168Z,149.74
2023-02-27T06:48:22.219Z,151.26
2023-02-27T06:49:12.237Z,154.59
2023-02-27T06:50:02.279Z,152.00
2023-02-27T06:50:52.344Z,155.02
2023-02-27T06:51:43.674Z,158.69
2023-02-27T06:52:32.420Z,158.77
2023-02-27T06:53:22.510Z,159.26
2023-02-27T06:54:12.782Z,158.72
2023-02-27T06:55:02.856Z,159.64
2023-02-27T06:55:52.923Z,160.45
2023-02-27T06:56:43.232Z,162.75
2023-02-27T06:57:33.268Z,165.02
2023-02-27T06:58:23.331Z,164.23
2023-02-27T06:59:13.386Z,166.75
2023-02-27T07:00:03.426Z,167.43
2023-02-27T07:00:53.485Z,174.01
2023-02-27T07:01:43.616Z,176.64
2023-02-27T07:02:33.562Z,178.83
2023-02-27T07:03:23.662Z,180.26
2023-02-27T07:04:13.706Z,179.16
2023-02-27T07:05:07.907Z,180.14
2023-02-27T07:05:53.940Z,180.15
2023-02-27T07:07:36.466Z,180.40
2023-02-27T07:07:38.038Z,180.17
2023-02-27T07:08:24.235Z,180.29
2023-02-27T07:09:14.288Z,180.54
2023-02-27T07:10:04.362Z,181.34
2023-02-27T07:10:54.390Z,180.43
2023-02-27T07:11:44.500Z,182.31
2023-02-27T07:12:34.537Z,183.60
2023-02-27T07:13:24.572Z,182.83
2023-02-27T07:14:14.611Z,176.05
2023-02-27T07:15:04.663Z,174.15
2023-02-27T07:15:54.711Z,173.91
2023-02-27T07:16:44.768Z,178.89
2023-02-27T07:17:34.829Z,178.24
2023-02-27T07:18:24.858Z,178.29
2023-02-27T07:19:14.879Z,178.36
2023-02-27T07:20:04.922Z,174.22
2023-02-27T07:20:54.971Z,174.82
2023-02-27T07:21:45.071Z,171.72
2023-02-27T07:22:35.092Z,170.07
2023-02-27T07:23:25.139Z,172.84
2023-02-27T07:24:15.169Z,171.61
2023-02-27T07:25:05.353Z,174.27
2023-02-27T07:25:55.265Z,170.66
2023-02-27T07:26:45.326Z,173.62
2023-02-27T07:27:35.365Z,170.74
2023-02-27T07:28:25.470Z,171.57
2023-02-27T07:29:16.422Z,173.45
2023-02-27T07:30:05.551Z,169.89
2023-02-27T07:30:55.653Z,170.03
2023-02-27T07:31:45.721Z,168.13
2023-02-27T07:32:35.673Z,165.56
2023-02-27T07:33:25.782Z,163.73
2023-02-27T07:34:15.787Z,165.74
2023-02-27T07:35:05.964Z,164.45
2023-02-27T07:35:56.063Z,162.79
2023-02-27T07:36:46.060Z,162.38
2023-02-27T07:37:36.087Z,159.59
2023-02-27T07:38:26.131Z,155.47
2023-02-27T07:39:16.182Z,155.25
2023-02-27T07:40:06.246Z,155.20
2023-02-27T07:40:56.276Z,153.17
2023-02-27T07:41:46.400Z,150.85
2023-02-27T07:42:36.401Z,153.20
2023-02-27T07:43:26.438Z,150.73
2023-02-27T07:44:16.485Z,149.89
2023-02-27T07:45:06.554Z,149.55
2023-02-27T07:45:56.594Z,144.38
2023-02-27T07:46:46.677Z,141.36
2023-02-27T07:47:36.698Z,145.31
2023-02-27T07:48:26.740Z,146.19
2023-02-27T07:49:16.799Z,146.06
2023-02-27T07:50:06.863Z,140.21
2023-02-27T07:50:56.920Z,142.06
2023-02-27T07:51:47.006Z,141.61
2023-02-27T07:52:37.044Z,140.75
2023-02-27T07:53:27.085Z,140.26
2023-02-27T07:54:17.128Z,139.52
2023-02-27T07:55:07.229Z,138.96
2023-02-27T07:55:57.244Z,142.05
2023-02-27T07:56:47.321Z,136.99
2023-02-27T07:57:37.337Z,136.66
2023-02-27T07:58:27.389Z,136.22
2023-02-27T07:59:17.415Z,141.91
2023-02-27T08:00:07.501Z,144.52
2023-02-27T08:00:57.528Z,143.43
2023-02-27T08:01:47.634Z,142.21
2023-02-27T08:02:37.723Z,145.43
2023-02-27T08:03:27.748Z,143.66
2023-02-27T08:04:18.115Z,141.80
2023-02-27T08:05:08.222Z,139.54
2023-02-27T08:05:58.614Z,139.09
2023-02-27T08:06:48.240Z,137.39
2023-02-27T08:07:38.271Z,137.18
2023-02-27T08:08:28.361Z,135.73
2023-02-27T08:09:18.391Z,132.63
2023-02-27T08:10:08.452Z,135.72
2023-02-27T08:10:58.474Z,133.78
2023-02-27T08:11:49.260Z,135.17
2023-02-27T08:12:38.616Z,134.68
2023-02-27T08:13:59.187Z,130.04
2023-02-27T08:14:19.760Z,130.17
2023-02-27T08:15:08.804Z,129.75
2023-02-27T08:15:58.893Z,130.30
2023-02-27T08:16:48.977Z,131.52
2023-02-27T08:17:39.016Z,133.12
2023-02-27T08:18:29.077Z,130.58
2023-02-27T08:19:19.106Z,127.86
2023-02-27T08:20:09.281Z,129.31
2023-02-27T08:20:59.346Z,126.17
2023-02-27T08:21:49.380Z,126.96
2023-02-27T08:22:39.408Z,128.81
2023-02-27T08:23:29.513Z,128.33
2023-02-27T08:24:19.488Z,126.68
2023-02-27T08:25:09.534Z,122.43
2023-02-27T08:25:59.562Z,123.45
2023-02-27T08:26:49.671Z,124.88
2023-02-27T08:27:39.696Z,123.37
2023-02-27T08:28:29.735Z,122.22
2023-02-27T08:29:19.774Z,121.41
2023-02-27T08:30:09.846Z,124.37
2023-02-27T08:30:59.906Z,123.75
2023-02-27T08:31:50.237Z,124.63
2023-02-27T08:32:40.082Z,124.38
2023-02-27T08:33:30.111Z,119.66
2023-02-27T08:34:20.128Z,122.56
2023-02-27T08:35:10.199Z,121.58
2023-02-27T08:36:00.339Z,119.52
2023-02-27T08:36:50.319Z,117.64
2023-02-27T08:37:40.349Z,121.11
2023-02-27T08:38:30.379Z,123.11
2023-02-27T08:39:20.417Z,118.11
2023-02-27T08:40:10.451Z,121.00
2023-02-27T08:41:00.527Z,118.69
2023-02-27T08:41:50.591Z,121.06
2023-02-27T08:42:40.627Z,117.33
2023-02-27T08:43:30.707Z,120.01
2023-02-27T08:44:20.748Z,117.31
2023-02-27T08:45:10.791Z,117.21
2023-02-27T08:46:00.841Z,121.26
2023-02-27T08:46:50.918Z,118.26
2023-02-27T08:47:40.959Z,119.02
2023-02-27T08:48:30.988Z,119.48
2023-02-27T08:49:21.752Z,119.23
2023-02-27T08:50:11.092Z,116.46
2023-02-27T08:51:01.100Z,118.60
2023-02-27T08:51:51.181Z,117.23
2023-02-27T08:52:41.235Z,122.62
2023-02-27T08:53:31.295Z,116.77
2023-02-27T08:54:21.329Z,118.52
2023-02-27T08:55:11.406Z,115.59
2023-02-27T08:56:01.465Z,116.41
2023-02-27T08:56:51.557Z,118.80
2023-02-27T08:57:41.569Z,118.22
2023-02-27T08:58:31.624Z,113.91
2023-02-27T08:59:21.687Z,117.02
2023-02-27T09:00:11.773Z,117.46
2023-02-27T09:01:01.902Z,118.28
2023-02-27T09:01:52.081Z,111.92
2023-02-27T09:02:42.145Z,116.91
2023-02-27T09:03:32.187Z,111.82
2023-02-27T09:04:22.226Z,116.15
2023-02-27T09:05:12.254Z,113.72
2023-02-27T09:06:02.349Z,117.33
2023-02-27T09:06:52.410Z,113.81
2023-02-27T09:07:42.515Z,110.79
2023-02-27T09:08:32.543Z,116.07
2023-02-27T09:09:22.546Z,115.49
2023-02-27T09:10:12.623Z,112.13
2023-02-27T09:11:02.915Z,111.79
2023-02-27T09:11:53.013Z,109.73
2023-02-27T09:12:43.050Z,113.19
2023-02-27T09:13:33.391Z,117.40
2023-02-27T09:14:23.418Z,117.86
2023-02-27T09:15:13.505Z,112.51
2023-02-27T09:16:03.527Z,114.92
2023-02-27T09:16:53.719Z,112.60
2023-02-27T09:17:43.673Z,108.96
2023-02-27T09:18:33.786Z,112.49
2023-02-27T09:19:23.776Z,115.63
2023-02-27T09:20:13.846Z,112.14
2023-02-27T09:21:03.917Z,109.36
2023-02-27T09:21:54.017Z,110.28
2023-02-27T09:22:44.216Z,110.43
2023-02-27T09:23:34.287Z,114.11
2023-02-27T09:24:24.376Z,110.57
2023-02-27T09:25:14.646Z,112.53
2023-02-27T09:26:04.670Z,108.19
2023-02-27T09:26:54.779Z,112.09
2023-02-27T09:27:44.822Z,111.06
2023-02-27T09:28:34.856Z,110.39
2023-02-27T09:29:24.887Z,106.75
2023-02-27T09:30:14.969Z,111.78
2023-02-27T09:31:05.004Z,110.76
2023-02-27T09:31:55.189Z,112.64
2023-02-27T09:32:45.248Z,110.62
2023-02-27T09:33:35.185Z,110.90
2023-02-27T09:34:25.207Z,105.95
2023-02-27T09:35:15.289Z,108.10
2023-02-27T09:36:05.405Z,112.84
2023-02-27T09:36:55.403Z,111.42
2023-02-27T09:37:45.435Z,113.13
2023-02-27T09:38:35.513Z,112.59
2023-02-27T09:39:25.544Z,113.67
2023-02-27T09:40:15.643Z,110.99
2023-02-27T09:41:05.909Z,112.63
2023-02-27T09:41:56.021Z,113.45
2023-02-27T09:42:46.112Z,110.82
2023-02-27T09:43:36.087Z,113.45
2023-02-27T09:44:39.799Z,111.78
2023-02-27T09:45:17.192Z,109.07
2023-02-27T09:46:06.271Z,111.49
2023-02-27T09:46:56.278Z,107.22
2023-02-27T09:47:46.304Z,107.70
2023-02-27T09:48:36.372Z,109.87
2023-02-27T09:49:26.450Z,111.13
2023-02-27T09:50:16.481Z,110.54
2023-02-27T09:51:06.730Z,110.05
2023-02-27T09:51:56.792Z,107.93
2023-02-27T09:52:46.840Z,107.48
2023-02-27T09:53:36.867Z,108.72
2023-02-27T09:54:26.947Z,111.75
2023-02-27T09:55:16.993Z,107.46
2023-02-27T09:56:07.064Z,110.11
2023-02-27T09:56:57.106Z,110.68
2023-02-27T09:57:47.130Z,106.31
2023-02-27T09:58:37.152Z,107.49
2023-02-27T09:59:27.206Z,105.82
2023-02-27T10:00:17.240Z,104.25
2023-02-27T10:01:07.327Z,108.25
2023-02-27T10:01:57.413Z,108.88
2023-02-27T10:02:47.449Z,109.48
2023-02-27T10:03:37.550Z,104.75
2023-02-27T10:04:27.564Z,107.00
2023-02-27T10:05:17.597Z,108.84
2023-02-27T10:06:07.677Z,104.55
2023-02-27T10:06:57.720Z,106.81
2023-02-27T10:07:47.768Z,102.72
2023-02-27T10:08:37.800Z,104.03
2023-02-27T10:09:27.870Z,105.05
2023-02-27T10:10:17.906Z,107.21
2023-02-27T10:11:08.000Z,103.86
2023-02-27T10:11:58.066Z,106.64
2023-02-27T10:12:48.088Z,104.48
2023-02-27T10:13:38.128Z,105.67
2023-02-27T10:14:28.205Z,100.49
2023-02-27T10:15:18.235Z,106.28
2023-02-27T10:16:08.284Z,104.63
2023-02-27T10:16:58.414Z,100.97
2023-02-27T10:17:48.429Z,101.22
2023-02-27T10:18:38.420Z,101.15
2023-02-27T10:19:28.463Z,103.84
2023-02-27T10:20:18.494Z,105.88
2023-02-27T10:21:08.540Z,100.98
2023-02-27T10:21:58.598Z,103.75
2023-02-27T10:22:48.635Z,104.34
2023-02-27T10:23:38.661Z,101.63
2023-02-27T10:24:28.794Z,99.47
2023-02-27T10:25:30.790Z,106.25
2023-02-27T10:26:09.888Z,105.33
2023-02-27T10:26:58.953Z,100.57
2023-02-27T10:27:48.995Z,98.49
2023-02-27T10:28:39.049Z,98.74
2023-02-27T10:29:29.112Z,98.44
2023-02-27T10:30:28.291Z,97.32
2023-02-27T10:31:10.346Z,102.02
2023-02-27T10:31:59.384Z,99.25
2023-02-27T10:32:49.394Z,103.17
2023-02-27T10:33:39.464Z,102.07
2023-02-27T10:34:29.527Z,97.70
2023-02-27T10:35:19.600Z,98.16